createdAt,value
2023-01-09T00:02:16.005Z,36.67
2023-01-09T00:04:45.280Z,36.56
2023-01-09T00:07:13.141Z,36.59
2023-01-09T00:09:41.291Z,36.67
2023-01-09T00:12:09.191Z,36.23
2023-01-09T00:14:37.361Z,36.50
2023-01-09T00:17:05.320Z,36.60
2023-01-09T00:19:33.184Z,36.64
2023-01-09T00:22:02.709Z,36.37
2023-01-09T00:24:30.583Z,36.17
2023-01-09T00:26:58.481Z,36.57
2023-01-09T00:29:26.378Z,36.34
2023-01-09T00:31:54.591Z,36.47
2023-01-09T00:34:22.503Z,36.57
2023-01-09T00:36:55.052Z,36.61
2023-01-09T00:39:24.373Z,36.75
2023-01-09T00:41:53.697Z,36.32
2023-01-09T00:44:23.152Z,36.74
2023-01-09T00:46:51.944Z,36.59
2023-01-09T00:49:19.821Z,36.71
2023-01-09T00:51:48.009Z,36.70
2023-01-09T00:54:17.159Z,36.24
2023-01-09T00:56:46.473Z,36.69
2023-01-09T00:59:14.341Z,36.40
2023-01-09T01:01:42.343Z,36.64
2023-01-09T01:04:24.173Z,36.58
2023-01-09T01:07:09.317Z,36.24
2023-01-09T01:09:37.208Z,36.62
2023-01-09T01:12:07.350Z,36.38
2023-01-09T01:14:35.535Z,36.52
2023-01-09T01:17:03.524Z,36.65
2023-01-09T01:19:31.387Z,36.70
2023-01-09T01:21:59.628Z,36.54
2023-01-09T01:24:27.520Z,36.72
2023-01-09T01:26:55.387Z,36.40
2023-01-09T01:29:24.645Z,36.46
2023-01-09T01:31:52.916Z,36.65
2023-01-09T01:34:20.814Z,36.60
2023-01-09T01:36:48.695Z,36.65
2023-01-09T01:39:17.374Z,36.40
2023-01-09T01:41:45.499Z,36.60
2023-01-09T01:44:46.639Z,36.24
2023-01-09T01:47:15.972Z,36.41
2023-01-09T01:49:44.136Z,36.63
2023-01-09T01:52:12.045Z,36.64
2023-01-09T01:54:39.921Z,36.51
2023-01-09T01:57:07.793Z,36.41
2023-01-09T01:59:37.616Z,36.74
2023-01-09T02:02:06.053Z,36.58
2023-01-09T02:04:36.339Z,36.64
2023-01-09T02:07:05.408Z,36.57
2023-01-09T02:09:33.269Z,36.76
2023-01-09T02:12:01.470Z,36.75
2023-01-09T02:14:30.668Z,36.29
2023-01-09T02:17:02.089Z,36.62
2023-01-09T02:19:49.032Z,36.16
2023-01-09T02:22:20.489Z,36.82
2023-01-09T02:25:02.318Z,36.75
2023-01-09T02:27:50.202Z,36.32
2023-01-09T02:30:38.235Z,36.72
2023-01-09T02:33:13.865Z,36.39
2023-01-09T02:35:53.771Z,36.31
2023-01-09T02:38:25.715Z,36.63
2023-01-09T02:40:56.799Z,36.25
2023-01-09T02:43:24.704Z,36.06
2023-01-09T02:45:54.091Z,36.36
2023-01-09T02:48:22.118Z,36.65
2023-01-09T02:50:54.238Z,36.70
2023-01-09T02:53:45.189Z,36.60
2023-01-09T02:56:21.359Z,36.46
2023-01-09T02:58:58.968Z,36.30
2023-01-09T03:01:29.696Z,36.25
2023-01-09T03:04:01.022Z,36.43
2023-01-09T03:06:32.215Z,36.37
2023-01-09T03:09:02.438Z,36.31
2023-01-09T03:11:32.532Z,36.29
2023-01-09T03:14:02.659Z,36.44
2023-01-09T03:16:33.981Z,36.50
2023-01-09T03:19:01.921Z,36.44
2023-01-09T03:21:30.105Z,36.41
2023-01-09T03:23:59.062Z,36.56
2023-01-09T03:26:29.089Z,36.60
2023-01-09T03:28:57.038Z,36.50
2023-01-09T03:31:25.181Z,36.48
2023-01-09T03:33:54.534Z,36.24
2023-01-09T03:36:22.674Z,36.56
2023-01-09T03:38:51.439Z,36.54
2023-01-09T03:41:19.740Z,36.54
2023-01-09T03:43:48.484Z,36.48
2023-01-09T03:46:16.522Z,36.48
2023-01-09T03:48:44.380Z,36.37
2023-01-09T03:51:13.949Z,36.44
2023-01-09T03:53:42.323Z,36.21
2023-01-09T03:56:10.174Z,36.54
2023-01-09T03:58:38.143Z,36.23
2023-01-09T04:01:09.397Z,36.60
2023-01-09T04:03:37.435Z,36.39
2023-01-09T04:06:05.687Z,36.32
2023-01-09T04:08:34.962Z,36.38
2023-01-09T04:11:03.191Z,36.55
2023-01-09T04:13:31.092Z,36.66
2023-01-09T04:15:59.109Z,36.32
2023-01-09T04:18:27.051Z,36.42
2023-01-09T04:20:55.557Z,36.24
2023-01-09T04:23:23.537Z,36.62
2023-01-09T04:25:52.799Z,36.37
2023-01-09T04:28:20.690Z,36.26
2023-01-09T04:30:48.824Z,36.28
2023-01-09T04:33:16.707Z,36.26
2023-01-09T04:35:44.682Z,36.62
2023-01-09T04:38:12.599Z,36.22
2023-01-09T04:40:40.799Z,36.59
2023-01-09T04:43:10.111Z,36.06
2023-01-09T04:45:38.049Z,36.11
2023-01-09T04:48:06.594Z,36.57
2023-01-09T04:50:34.811Z,36.42
2023-01-09T04:53:02.670Z,36.54
2023-01-09T04:55:30.545Z,36.49
2023-01-09T04:57:58.498Z,36.52
2023-01-09T05:00:28.047Z,36.51
2023-01-09T05:02:56.980Z,36.51
2023-01-09T05:05:24.910Z,36.40
2023-01-09T05:07:52.764Z,36.23
2023-01-09T05:10:21.047Z,36.28
2023-01-09T05:12:48.972Z,36.45
2023-01-09T05:15:17.036Z,36.25
2023-01-09T05:17:46.432Z,36.62
2023-01-09T05:20:14.711Z,36.25
2023-01-09T05:22:42.602Z,36.15
2023-01-09T05:25:10.929Z,36.30
2023-01-09T05:27:38.944Z,36.00
2023-01-09T05:30:09.670Z,36.25
2023-01-09T05:32:37.559Z,36.22
2023-01-09T05:35:07.877Z,36.51
2023-01-09T05:37:35.741Z,36.12
2023-01-09T05:40:04.059Z,36.17
2023-01-09T05:42:31.970Z,36.11
2023-01-09T05:44:59.848Z,35.93
2023-01-09T05:47:27.731Z,36.45
2023-01-09T05:49:56.337Z,36.27
2023-01-09T05:52:25.715Z,36.32
2023-01-09T05:54:53.575Z,36.38
2023-01-09T05:57:21.531Z,36.28
2023-01-09T05:59:49.687Z,36.33
2023-01-09T06:02:17.685Z,36.30
2023-01-09T06:04:45.704Z,35.97
2023-01-09T06:07:18.585Z,36.46
2023-01-09T06:09:49.279Z,36.33
2023-01-09T06:12:17.157Z,36.12
2023-01-09T06:14:45.057Z,35.88
2023-01-09T06:17:12.986Z,36.15
2023-01-09T06:19:40.864Z,36.30
2023-01-09T06:22:08.749Z,36.39
2023-01-09T06:24:36.620Z,36.09
2023-01-09T06:27:06.663Z,36.32
2023-01-09T06:29:34.660Z,36.19
2023-01-09T06:32:03.055Z,36.05
2023-01-09T06:34:30.957Z,35.91
2023-01-09T06:36:58.823Z,36.11
2023-01-09T06:39:26.769Z,36.27
2023-01-09T06:41:54.897Z,35.99
2023-01-09T06:44:24.115Z,35.99
2023-01-09T06:46:52.050Z,36.22
2023-01-09T06:49:23.478Z,36.16
2023-01-09T06:51:51.669Z,36.30
2023-01-09T06:54:19.681Z,36.06
2023-01-09T06:56:47.617Z,36.28
2023-01-09T06:59:15.524Z,35.92
2023-01-09T07:01:45.267Z,36.00
2023-01-09T07:04:13.208Z,36.03
2023-01-09T07:06:41.157Z,36.14
2023-01-09T07:09:13.165Z,35.63
2023-01-09T07:11:41.463Z,35.89
2023-01-09T07:14:09.352Z,36.04
2023-01-09T07:16:37.258Z,36.26
2023-01-09T07:19:06.574Z,35.98
2023-01-09T07:21:34.753Z,36.02
2023-01-09T07:24:02.667Z,36.05
2023-01-09T07:26:30.588Z,35.93
2023-01-09T07:28:58.483Z,35.82
2023-01-09T07:31:26.704Z,36.21
2023-01-09T07:33:54.641Z,36.12
2023-01-09T07:36:23.927Z,35.94
2023-01-09T07:38:51.875Z,35.97
2023-01-09T07:41:20.071Z,35.81
2023-01-09T07:43:47.955Z,35.99
2023-01-09T07:46:15.856Z,36.04
2023-01-09T07:48:43.757Z,36.19
2023-01-09T07:51:12.687Z,36.00
2023-01-09T07:53:41.980Z,35.79
2023-01-09T07:56:09.877Z,35.96
2023-01-09T07:58:38.448Z,36.00
2023-01-09T08:01:06.954Z,36.00
2023-01-09T08:03:35.150Z,36.13
2023-01-09T08:06:03.038Z,36.21
2023-01-09T08:08:30.923Z,35.88
2023-01-09T08:11:00.514Z,36.21
2023-01-09T08:13:28.406Z,35.58
2023-01-09T08:15:56.383Z,35.62
2023-01-09T08:18:24.318Z,36.16
2023-01-09T08:20:52.546Z,35.64
2023-01-09T08:23:20.437Z,35.96
2023-01-09T08:25:48.402Z,36.06
2023-01-09T08:28:18.132Z,36.02
2023-01-09T08:30:46.332Z,35.88
2023-01-09T08:33:14.252Z,35.72
2023-01-09T08:35:42.151Z,36.08
2023-01-09T08:38:10.042Z,35.68
2023-01-09T08:40:38.280Z,36.04
2023-01-09T08:43:23.516Z,35.55
2023-01-09T08:46:15.742Z,36.17
2023-01-09T08:48:44.290Z,36.11
2023-01-09T08:51:12.376Z,35.76
2023-01-09T08:53:40.288Z,35.81
2023-01-09T08:56:08.595Z,36.07
2023-01-09T08:58:36.490Z,35.62
2023-01-09T09:01:08.115Z,35.95
2023-01-09T09:03:36.001Z,35.96
2023-01-09T09:06:04.210Z,35.92
2023-01-09T09:08:32.298Z,35.66
2023-01-09T09:11:01.264Z,35.80
2023-01-09T09:13:29.172Z,36.07
2023-01-09T09:15:57.134Z,35.81
2023-01-09T09:18:26.495Z,35.81
2023-01-09T09:20:54.651Z,36.01
2023-01-09T09:23:23.690Z,36.01
2023-01-09T09:25:51.588Z,35.71
2023-01-09T09:28:19.517Z,35.93
2023-01-09T09:30:47.680Z,36.05
2023-01-09T09:33:15.514Z,35.63
2023-01-09T09:35:44.783Z,35.73
2023-01-09T09:38:13.382Z,35.66
2023-01-09T09:41:01.741Z,35.71
2023-01-09T09:43:58.052Z,35.80
2023-01-09T09:46:29.960Z,35.67
2023-01-09T09:48:58.987Z,35.98
2023-01-09T09:51:37.328Z,35.71
2023-01-09T09:54:07.539Z,35.78
2023-01-09T09:56:37.609Z,36.00
2023-01-09T09:59:06.385Z,35.62
2023-01-09T10:01:50.512Z,35.84
2023-01-09T10:04:19.535Z,35.84
2023-01-09T10:06:49.813Z,35.96
2023-01-09T10:09:21.849Z,35.63
2023-01-09T10:11:52.378Z,35.57
2023-01-09T10:14:24.274Z,35.80
2023-01-09T10:17:15.382Z,35.92
2023-01-09T10:19:54.658Z,36.01
2023-01-09T10:22:26.889Z,35.89
2023-01-09T10:25:03.032Z,35.68
2023-01-09T10:27:37.094Z,35.80
2023-01-09T10:30:14.550Z,35.92
2023-01-09T10:32:51.260Z,35.95
2023-01-09T10:35:26.216Z,35.95
2023-01-09T10:37:56.707Z,35.61
2023-01-09T10:40:26.307Z,35.90
2023-01-09T10:42:55.315Z,35.87
2023-01-09T10:45:25.246Z,35.51
2023-01-09T10:47:53.306Z,35.96
2023-01-09T10:50:22.494Z,35.85
2023-01-09T10:52:51.005Z,35.85
2023-01-09T10:55:23.565Z,35.73
2023-01-09T10:57:53.069Z,36.07
2023-01-09T11:00:23.559Z,35.82
2023-01-09T11:02:51.936Z,35.81
2023-01-09T11:05:21.612Z,35.85
2023-01-09T11:07:51.287Z,35.71
2023-01-09T11:10:22.758Z,35.79
2023-01-09T11:12:50.719Z,35.91
2023-01-09T11:15:30.067Z,35.46
2023-01-09T11:18:16.843Z,35.77
2023-01-09T11:20:44.789Z,35.91
2023-01-09T11:23:29.597Z,35.67
2023-01-09T11:26:00.172Z,35.80
2023-01-09T11:28:28.073Z,35.83
2023-01-09T11:30:57.756Z,35.85
2023-01-09T11:33:27.135Z,35.96
2023-01-09T11:35:58.223Z,35.67
2023-01-09T11:38:26.127Z,35.84
2023-01-09T11:40:54.691Z,35.73
2023-01-09T11:43:30.728Z,35.97
2023-01-09T11:46:01.410Z,35.97
2023-01-09T11:48:34.548Z,35.71
2023-01-09T11:51:03.517Z,35.50
2023-01-09T11:53:31.368Z,35.72
2023-01-09T11:56:01.463Z,35.54
2023-01-09T11:58:33.305Z,35.62
2023-01-09T12:01:07.329Z,35.34
2023-01-09T12:04:03.805Z,35.96
2023-01-09T12:06:34.412Z,35.73
2023-01-09T12:09:02.987Z,35.74
2023-01-09T12:11:33.867Z,35.44
2023-01-09T12:14:39.796Z,35.54
2023-01-09T12:17:28.710Z,35.75
2023-01-09T12:20:16.584Z,35.51
2023-01-09T12:22:46.198Z,35.45
2023-01-09T12:25:22.315Z,35.79
2023-01-09T12:27:58.352Z,35.87
2023-01-09T12:30:36.379Z,35.43
2023-01-09T12:33:13.816Z,35.65
2023-01-09T12:35:42.576Z,35.67
2023-01-09T12:38:25.905Z,35.66
2023-01-09T12:41:11.585Z,35.83
2023-01-09T12:43:42.145Z,35.82
2023-01-09T12:46:14.890Z,35.38
2023-01-09T12:48:53.504Z,35.32
2023-01-09T12:51:25.874Z,35.82
2023-01-09T12:53:57.046Z,35.33
2023-01-09T12:56:25.823Z,35.56
2023-01-09T12:58:55.398Z,35.34
2023-01-09T13:01:26.063Z,35.68
2023-01-09T13:03:58.995Z,35.33
2023-01-09T13:06:26.937Z,35.54
2023-01-09T13:08:59.447Z,35.44
2023-01-09T13:11:29.797Z,35.32
2023-01-09T13:13:59.704Z,35.32
2023-01-09T13:16:29.309Z,35.38
2023-01-09T13:19:00.279Z,35.66
2023-01-09T13:21:28.489Z,35.50
2023-01-09T13:23:57.404Z,35.29
2023-01-09T13:26:26.465Z,35.30
2023-01-09T13:28:57.019Z,35.27
2023-01-09T13:31:57.683Z,35.54
2023-01-09T13:34:28.077Z,35.48
2023-01-09T13:36:56.680Z,35.78
2023-01-09T13:39:25.456Z,35.37
2023-01-09T13:42:16.302Z,35.72
2023-01-09T13:44:44.215Z,35.33
2023-01-09T13:47:17.725Z,35.74
2023-01-09T13:50:06.930Z,35.80
2023-01-09T13:52:37.238Z,35.37
2023-01-09T13:55:26.942Z,35.67
2023-01-09T13:58:26.025Z,35.45
2023-01-09T14:01:01.985Z,35.69
2023-01-09T14:03:33.098Z,35.54
2023-01-09T14:06:11.881Z,35.34
2023-01-09T14:08:40.549Z,35.67
2023-01-09T14:11:08.708Z,35.67
2023-01-09T14:13:40.299Z,35.31
2023-01-09T14:16:09.089Z,35.42
2023-01-09T14:18:37.986Z,35.22
2023-01-09T14:21:08.711Z,35.73
2023-01-09T14:23:51.495Z,35.41
2023-01-09T14:26:22.306Z,35.39
2023-01-09T14:28:50.233Z,35.78
2023-01-09T14:31:30.555Z,35.58
2023-01-09T14:34:31.381Z,35.27
2023-01-09T14:37:01.263Z,35.54
2023-01-09T14:39:29.881Z,35.13
2023-01-09T14:42:02.399Z,35.24
2023-01-09T14:44:30.937Z,35.61
2023-01-09T14:47:01.295Z,35.66
2023-01-09T14:49:33.173Z,35.76
2023-01-09T14:52:04.572Z,35.20
2023-01-09T14:54:34.719Z,35.48
2023-01-09T14:57:02.711Z,35.58
2023-01-09T14:59:30.637Z,35.26
2023-01-09T15:01:59.483Z,35.20
2023-01-09T15:04:31.705Z,35.68
2023-01-09T15:06:59.869Z,35.64
2023-01-09T15:09:29.785Z,35.48
2023-01-09T15:11:59.042Z,35.26
2023-01-09T15:14:31.531Z,35.35
2023-01-09T15:16:59.447Z,35.36
2023-01-09T15:19:27.632Z,35.17
2023-01-09T15:21:59.731Z,35.59
2023-01-09T15:24:29.889Z,35.33
2023-01-09T15:26:58.570Z,35.39
2023-01-09T15:29:26.762Z,35.39
2023-01-09T15:31:55.867Z,35.74
2023-01-09T15:34:24.672Z,35.56
2023-01-09T15:36:52.777Z,35.59
2023-01-09T15:39:22.580Z,35.48
2023-01-09T15:42:09.696Z,35.41
2023-01-09T15:44:38.757Z,35.74
2023-01-09T15:47:07.522Z,35.36
2023-01-09T15:49:35.967Z,35.62
2023-01-09T15:52:04.529Z,35.31
2023-01-09T15:54:33.024Z,35.58
2023-01-09T15:57:33.246Z,35.50
2023-01-09T16:00:45.383Z,35.08
2023-01-09T16:03:21.369Z,35.51
2023-01-09T16:05:52.059Z,35.48
2023-01-09T16:08:29.705Z,35.33
2023-01-09T16:10:59.719Z,35.20
2023-01-09T16:13:30.155Z,35.48
2023-01-09T16:15:58.191Z,35.73
2023-01-09T16:18:31.101Z,35.49
2023-01-09T16:21:03.847Z,35.67
2023-01-09T16:23:32.593Z,35.49
2023-01-09T16:26:16.305Z,35.12
2023-01-09T16:28:48.593Z,35.44
2023-01-09T16:31:20.626Z,35.59
2023-01-09T16:33:58.566Z,35.28
2023-01-09T16:36:35.974Z,35.41
2023-01-09T16:39:05.185Z,35.23
2023-01-09T16:41:50.322Z,35.44
2023-01-09T16:44:19.654Z,35.27
2023-01-09T16:46:47.951Z,35.32
2023-01-09T16:49:18.328Z,35.60
2023-01-09T16:51:55.406Z,35.73
2023-01-09T16:54:23.711Z,35.53
2023-01-09T16:57:07.851Z,35.08
2023-01-09T16:59:37.553Z,35.25
2023-01-09T17:02:18.740Z,35.29
2023-01-09T17:04:58.095Z,35.63
2023-01-09T17:07:28.050Z,35.40
2023-01-09T17:09:57.328Z,35.51
2023-01-09T17:12:26.191Z,35.36
2023-01-09T17:15:00.848Z,35.59
2023-01-09T17:17:29.189Z,35.31
2023-01-09T17:20:01.227Z,35.41
2023-01-09T17:22:47.291Z,35.52
2023-01-09T17:25:41.912Z,35.40
2023-01-09T17:28:32.409Z,35.42
2023-01-09T17:31:06.481Z,35.24
2023-01-09T17:33:35.063Z,35.56
2023-01-09T17:36:03.048Z,35.25
2023-01-09T17:38:31.991Z,35.37
2023-01-09T17:41:09.612Z,35.23
2023-01-09T17:43:40.823Z,35.44
2023-01-09T17:46:16.486Z,35.36
2023-01-09T17:48:49.659Z,35.36
2023-01-09T17:51:18.443Z,35.38
2023-01-09T17:53:47.674Z,35.32
2023-01-09T17:56:56.311Z,35.44
2023-01-09T18:00:13.103Z,35.24
2023-01-09T18:05:24.696Z,35.44
2023-01-09T18:07:52.635Z,35.53
2023-01-09T18:10:48.613Z,35.65
2023-01-09T18:13:17.584Z,35.35
2023-01-09T18:15:48.308Z,35.06
2023-01-09T18:18:22.420Z,34.97
2023-01-09T18:20:51.152Z,35.36
2023-01-09T18:23:19.474Z,35.53
2023-01-09T18:25:49.572Z,35.08
2023-01-09T18:28:46.291Z,35.18
2023-01-09T18:31:19.868Z,35.29
2023-01-09T18:33:57.741Z,35.14
2023-01-09T18:36:29.299Z,35.08
2023-01-09T18:38:57.582Z,35.10
2023-01-09T18:41:25.594Z,35.30
2023-01-09T18:44:03.126Z,35.58
2023-01-09T18:46:32.521Z,35.66
2023-01-09T18:49:06.244Z,35.35
2023-01-09T18:51:35.278Z,35.21
2023-01-09T18:54:03.246Z,35.27
2023-01-09T18:56:31.171Z,35.29
2023-01-09T18:58:59.331Z,35.32
2023-01-09T19:01:27.630Z,35.07
2023-01-09T19:03:56.321Z,35.18
2023-01-09T19:06:25.850Z,35.24
2023-01-09T19:08:54.212Z,35.18
2023-01-09T19:11:22.174Z,35.39
2023-01-09T19:13:50.604Z,35.27
2023-01-09T19:16:18.686Z,35.29
2023-01-09T19:18:46.860Z,35.32
2023-01-09T19:21:15.849Z,35.04
2023-01-09T19:23:45.192Z,35.43
2023-01-09T19:26:17.410Z,35.10
2023-01-09T19:28:46.654Z,35.41
2023-01-09T19:31:15.136Z,35.19
2023-01-09T19:33:46.465Z,35.01
2023-01-09T19:36:25.780Z,35.12
2023-01-09T19:39:00.512Z,35.04
2023-01-09T19:41:49.898Z,35.36
2023-01-09T19:44:23.904Z,35.27
2023-01-09T19:46:53.500Z,35.49
2023-01-09T19:49:37.683Z,35.37
2023-01-09T19:52:17.340Z,35.54
2023-01-09T20:00:36.509Z,35.07
2023-01-09T20:03:10.033Z,35.51
2023-01-09T20:05:38.471Z,35.17
2023-01-09T20:08:25.306Z,35.55
2023-01-09T20:11:12.969Z,35.08
2023-01-09T20:13:41.403Z,35.30
2023-01-09T20:16:11.080Z,35.46
2023-01-09T20:18:57.710Z,35.49
2023-01-09T20:21:37.204Z,35.23
2023-01-09T20:24:15.231Z,35.13
2023-01-09T20:26:46.137Z,35.20
2023-01-09T20:29:14.208Z,34.97
2023-01-09T20:31:42.096Z,35.24
2023-01-09T20:34:10.984Z,35.06
2023-01-09T20:36:38.899Z,35.04
2023-01-09T20:39:07.985Z,35.16
2023-01-09T20:41:35.843Z,35.42
2023-01-09T20:44:07.037Z,35.54
2023-01-09T20:46:36.718Z,35.20
2023-01-09T20:49:08.556Z,35.31
2023-01-09T20:51:36.847Z,35.16
2023-01-09T20:54:04.952Z,35.27
2023-01-09T20:56:34.696Z,35.06
2023-01-09T20:59:12.199Z,35.50
2023-01-09T21:01:43.795Z,35.55
2023-01-09T21:04:12.276Z,35.30
2023-01-09T21:06:40.245Z,35.27
2023-01-09T21:09:08.234Z,35.32
2023-01-09T21:11:45.097Z,35.53
2023-01-09T21:14:14.436Z,35.31
2023-01-09T21:16:54.933Z,34.98
2023-01-09T21:19:23.662Z,35.32
2023-01-09T21:21:53.418Z,35.18
2023-01-09T21:24:48.719Z,35.20
2023-01-09T21:30:04.120Z,35.00
2023-01-09T21:32:41.158Z,35.37
2023-01-09T21:38:59.717Z,35.05
2023-01-09T21:41:48.349Z,35.26
2023-01-09T21:44:50.172Z,35.05
2023-01-09T21:47:19.576Z,35.54
2023-01-09T21:49:47.532Z,35.39
2023-01-09T21:55:35.176Z,34.88
2023-01-09T21:58:03.681Z,35.56
2023-01-09T22:00:32.008Z,35.21
2023-01-09T22:06:40.250Z,35.50
2023-01-09T22:09:08.303Z,35.27
2023-01-09T22:11:48.473Z,35.40
2023-01-09T22:14:28.353Z,35.31
2023-01-09T22:17:04.576Z,35.43
2023-01-09T22:19:35.139Z,35.15
2023-01-09T22:22:18.123Z,35.27
2023-01-09T22:24:48.363Z,34.99
2023-01-09T22:27:19.724Z,35.11
2023-01-09T22:33:00.548Z,35.03
2023-01-09T22:38:24.239Z,35.38
2023-01-09T22:41:08.235Z,35.29
2023-01-09T22:44:09.664Z,35.28
2023-01-09T22:46:46.483Z,35.15
2023-01-09T22:49:28.209Z,35.16
2023-01-09T22:52:21.392Z,34.90
2023-01-09T22:54:49.793Z,35.42
2023-01-09T22:57:36.368Z,35.39
2023-01-09T23:00:29.094Z,35.14
2023-01-09T23:03:14.686Z,35.01
2023-01-09T23:06:16.974Z,35.03
2023-01-09T23:11:57.675Z,35.08
2023-01-09T23:14:36.002Z,35.21
2023-01-09T23:17:12.325Z,35.28
2023-01-09T23:19:52.674Z,35.20
2023-01-09T23:22:20.712Z,35.35
2023-01-09T23:25:00.133Z,35.22
2023-01-09T23:27:37.184Z,35.24
2023-01-09T23:30:06.063Z,35.04
2023-01-09T23:33:12.291Z,34.92
2023-01-09T23:35:31.161Z,35.07
2023-01-09T23:38:33.013Z,35.17
2023-01-09T23:41:21.121Z,35.42
2023-01-09T23:43:58.629Z,35.25
2023-01-09T23:46:27.602Z,34.94
2023-01-09T23:49:04.178Z,35.34
2023-01-09T23:51:32.792Z,35.02
2023-01-09T23:54:00.808Z,34.80
2023-01-09T23:57:05.300Z,35.05
